Time;durP1;ratioP1;P1;durP2;ratioP2;P2;SDS_P1;SDS_P2;PMS_P1;PMS_P2;Temp;Humidity;BMP_temperature;BMP_pressure;BME280_temperature;BME280_humidity;BME280_pressure;Samples;Min_cycle;Max_cycle;Signal;HPM_P1;HPM_P2
2023/10/19 00:02:54;;;;;;;2.83;1.80;;;15.10;72.10;;;;;;10530889;28;20099;-61
2023/10/19 00:07:57;;;;;;;2.22;1.67;;;15.10;72.00;;;;;;10513189;28;20028;-61
2023/10/19 00:13:03;;;;;;;3.33;2.10;;;15.10;72.00;;;;;;10512453;28;20051;-60
2023/10/19 00:18:22;;;;;;;2.65;2.00;;;15.10;71.90;;;;;;10512942;28;20594;-61
2023/10/19 00:23:32;;;;;;;3.50;2.20;;;15.10;71.90;;;;;;10529977;28;20027;-61
2023/10/19 00:28:35;;;;;;;3.03;1.60;;;15.10;71.90;;;;;;10516889;28;20398;-61
2023/10/19 00:33:38;;;;;;;4.07;2.33;;;15.10;71.90;;;;;;10498697;28;20032;-61
2023/10/19 00:43:57;;;;;;;2.42;1.63;;;15.10;72.10;;;;;;10530577;28;20467;-61
2023/10/19 00:49:01;;;;;;;3.83;2.15;;;15.10;72.00;;;;;;10529672;28;20028;-61
2023/10/19 00:54:16;;;;;;;3.10;1.80;;;15.10;72.00;;;;;;10529379;28;20506;-60
2023/10/19 00:59:22;;;;;;;3.72;1.88;;;15.10;71.90;;;;;;10529915;28;20016;-61
2023/10/19 01:04:23;;;;;;;2.47;1.90;;;15.10;71.90;;;;;;10500699;28;20482;-61
2023/10/19 01:09:27;;;;;;;2.40;1.85;;;15.10;72.00;;;;;;10537719;28;20042;-61
2023/10/19 01:14:27;;;;;;;2.20;1.40;;;15.10;71.90;;;;;;10519378;28;20028;-61
2023/10/19 01:19:28;;;;;;;4.50;2.20;;;15.10;72.00;;;;;;10518838;28;20439;-61
2023/10/19 01:24:40;;;;;;;2.58;1.67;;;15.10;72.00;;;;;;10536982;28;20495;-61
2023/10/19 01:29:41;;;;;;;2.65;1.77;;;15.10;72.10;;;;;;10547357;28;20110;-61
2023/10/19 01:34:41;;;;;;;4.10;2.28;;;15.10;72.00;;;;;;10536283;28;20054;-60
2023/10/19 01:39:45;;;;;;;3.00;1.65;;;15.10;72.00;;;;;;10536381;28;20024;-61
2023/10/19 01:44:46;;;;;;;2.78;2.10;;;15.10;72.00;;;;;;10535848;28;20034;-60
2023/10/19 01:49:52;;;;;;;2.70;2.08;;;15.10;72.10;;;;;;10535680;28;20024;-61
2023/10/19 01:54:58;;;;;;;3.15;2.17;;;15.10;72.10;;;;;;10517884;28;20127;-61
2023/10/19 01:59:59;;;;;;;2.53;1.92;;;15.10;72.10;;;;;;10518383;28;20040;-61
2023/10/19 02:05:00;;;;;;;3.53;2.13;;;15.10;72.20;;;;;;10535301;28;20052;-61
2023/10/19 02:10:01;;;;;;;2.83;1.88;;;15.10;72.20;;;;;;10535064;28;20043;-61
2023/10/19 02:15:01;;;;;;;2.72;1.75;;;15.10;72.20;;;;;;10533726;28;20036;-60
2023/10/19 02:20:17;;;;;;;2.70;1.55;;;15.10;72.10;;;;;;10533566;28;20043;-61
2023/10/19 02:25:19;;;;;;;3.70;2.17;;;15.10;72.20;;;;;;10534683;28;20020;-60
2023/10/19 02:30:20;;;;;;;2.30;1.67;;;15.10;72.30;;;;;;10544788;28;20112;-61
2023/10/19 02:35:20;;;;;;;2.60;1.88;;;15.10;72.40;;;;;;10534630;28;20028;-61
2023/10/19 02:40:23;;;;;;;2.40;1.65;;;15.10;72.40;;;;;;10533896;28;20035;-61
2023/10/19 02:45:24;;;;;;;2.55;1.95;;;15.10;72.40;;;;;;10533402;28;20435;-61
2023/10/19 02:50:26;;;;;;;2.58;1.65;;;15.10;72.40;;;;;;10533494;28;20514;-61
2023/10/19 02:55:27;;;;;;;3.13;1.83;;;15.10;72.40;;;;;;10532834;28;20506;-61
2023/10/19 03:00:33;;;;;;;3.63;2.33;;;15.10;72.20;;;;;;10533233;28;20081;-61
2023/10/19 03:05:36;;;;;;;2.70;1.90;;;15.10;72.00;;;;;;10532749;28;20169;-60
2023/10/19 03:10:43;;;;;;;2.47;1.77;;;15.10;72.20;;;;;;10532533;28;20069;-61
2023/10/19 03:15:43;;;;;;;2.35;1.80;;;15.10;72.20;;;;;;10532206;28;20076;-61
2023/10/19 03:20:44;;;;;;;2.70;1.60;;;15.10;72.20;;;;;;10513997;28;20483;-60
2023/10/19 03:26:18;;;;;;;1.75;1.30;;;15.10;72.20;;;;;;10532097;28;20028;-60
2023/10/19 03:31:17;;;;;;;2.25;1.58;;;15.10;72.20;;;;;;10541146;28;20573;-60
2023/10/19 03:36:18;;;;;;;2.63;1.92;;;15.10;72.30;;;;;;10531407;28;20221;-60
2023/10/19 03:41:25;;;;;;;4.50;2.08;;;15.10;72.10;;;;;;10513513;28;20032;-60
2023/10/19 03:46:28;;;;;;;1.90;1.50;;;15.10;72.20;;;;;;10513922;28;20077;-61
2023/10/19 03:51:39;;;;;;;3.00;2.25;;;15.10;72.40;;;;;;10531912;28;20386;-60
2023/10/19 03:56:41;;;;;;;2.67;1.55;;;15.10;72.30;;;;;;10530427;28;20102;-60
2023/10/19 04:01:43;;;;;;;2.25;1.50;;;15.10;72.30;;;;;;10530333;28;20036;-60
2023/10/19 04:06:47;;;;;;;2.58;1.52;;;15.10;72.40;;;;;;10512651;28;20027;-60
2023/10/19 04:11:48;;;;;;;2.33;1.55;;;15.10;72.40;;;;;;10530729;28;20023;-61
2023/10/19 04:16:49;;;;;;;1.85;1.35;;;15.10;72.30;;;;;;10530060;28;20359;-61
2023/10/19 04:21:50;;;;;;;2.55;1.60;;;15.10;72.30;;;;;;10530524;28;20035;-61
2023/10/19 04:26:51;;;;;;;4.43;1.83;;;15.10;72.30;;;;;;10530164;28;20020;-60
2023/10/19 04:31:54;;;;;;;2.10;1.48;;;15.10;72.40;;;;;;10522047;28;20028;-60
2023/10/19 04:36:57;;;;;;;2.33;1.55;;;15.10;72.30;;;;;;10531412;28;20031;-61
2023/10/19 04:41:58;;;;;;;1.77;1.27;;;15.10;72.30;;;;;;10539148;28;20036;-61
2023/10/19 04:46:58;;;;;;;1.67;1.30;;;15.10;72.50;;;;;;10520331;28;20032;-60
2023/10/19 04:51:59;;;;;;;2.38;1.55;;;15.10;72.30;;;;;;10538402;28;20031;-61
2023/10/19 04:57:00;;;;;;;2.45;1.65;;;15.10;72.40;;;;;;10538092;28;20044;-60
2023/10/19 05:02:01;;;;;;;2.75;1.42;;;15.10;72.40;;;;;;10537766;28;20024;-60
2023/10/19 05:07:03;;;;;;;3.20;1.70;;;15.10;72.40;;;;;;10537248;28;20028;-60
2023/10/19 05:12:08;;;;;;;2.50;1.27;;;15.10;72.50;;;;;;10519444;28;20136;-61
2023/10/19 05:17:10;;;;;;;3.10;1.90;;;15.10;72.50;;;;;;10536894;28;20296;-61
2023/10/19 05:22:11;;;;;;;1.98;1.10;;;15.10;72.50;;;;;;10538225;28;20387;-61
2023/10/19 05:27:12;;;;;;;2.15;1.42;;;15.10;72.50;;;;;;10537442;28;20028;-61
2023/10/19 05:32:13;;;;;;;2.60;1.45;;;15.10;72.60;;;;;;10528088;28;20024;-61
2023/10/19 05:37:16;;;;;;;2.45;1.27;;;15.10;72.50;;;;;;10536049;28;20028;-60
2023/10/19 05:42:16;;;;;;;3.95;1.65;;;15.10;72.60;;;;;;10518733;28;20026;-61
2023/10/19 05:47:17;;;;;;;2.38;1.23;;;15.10;72.50;;;;;;10536017;28;20028;-60
2023/10/19 05:52:18;;;;;;;1.45;1.17;;;15.10;72.70;;;;;;10518080;28;20402;-60
2023/10/19 05:57:19;;;;;;;2.92;1.55;;;15.10;72.60;;;;;;10535368;28;20054;-61
2023/10/19 06:02:19;;;;;;;1.77;1.10;;;15.10;72.70;;;;;;10517756;28;20081;-60
2023/10/19 06:07:21;;;;;;;2.25;1.40;;;15.10;72.80;;;;;;10535467;28;20054;-60
2023/10/19 06:12:21;;;;;;;2.45;1.58;;;15.10;72.80;;;;;;10534291;28;20034;-61
2023/10/19 06:17:23;;;;;;;2.25;1.25;;;15.10;72.90;;;;;;10532910;28;20039;-61
2023/10/19 06:22:23;;;;;;;2.00;1.10;;;15.10;72.80;;;;;;10519145;28;20067;-60
2023/10/19 06:27:24;;;;;;;1.75;1.10;;;15.10;72.80;;;;;;10518204;28;20046;-60
2023/10/19 06:32:26;;;;;;;1.67;1.10;;;15.10;72.60;;;;;;10546093;28;20035;-60
2023/10/19 06:37:27;;;;;;;1.80;1.10;;;15.10;72.70;;;;;;10535791;28;20403;-61
2023/10/19 06:42:28;;;;;;;2.05;1.42;;;15.10;72.70;;;;;;10536542;28;20077;-61
2023/10/19 06:47:29;;;;;;;1.13;1.00;;;15.10;72.60;;;;;;10535448;28;20024;-60
2023/10/19 06:52:32;;;;;;;5.47;1.60;;;15.10;72.80;;;;;;10535625;28;20024;-61
2023/10/19 06:57:33;;;;;;;2.35;1.45;;;15.10;72.70;;;;;;10534892;28;20043;-61
2023/10/19 07:02:33;;;;;;;2.33;1.20;;;15.10;72.80;;;;;;10534347;28;20034;-61
2023/10/19 07:07:34;;;;;;;1.80;1.20;;;15.10;72.60;;;;;;10534629;28;20031;-61
2023/10/19 07:12:36;;;;;;;1.95;0.93;;;15.10;72.60;;;;;;10534732;28;20476;-60
2023/10/19 07:17:37;;;;;;;2.42;1.20;;;15.10;72.60;;;;;;10534538;28;20479;-61
2023/10/19 07:22:39;;;;;;;1.85;1.15;;;15.10;72.70;;;;;;10516437;28;20024;-61
2023/10/19 07:27:42;;;;;;;1.50;1.13;;;15.10;72.50;;;;;;10515836;28;20032;-61
2023/10/19 07:32:43;;;;;;;2.55;1.40;;;15.10;72.50;;;;;;10544473;28;20035;-61
2023/10/19 07:37:44;;;;;;;2.03;1.17;;;15.10;72.60;;;;;;10533183;28;20451;-61
2023/10/19 07:42:46;;;;;;;2.38;1.42;;;15.10;72.70;;;;;;10515920;28;20020;-60
2023/10/19 07:47:47;;;;;;;1.67;0.82;;;15.10;72.70;;;;;;10533137;28;20023;-61
2023/10/19 07:52:51;;;;;;;2.10;1.30;;;15.10;72.80;;;;;;10533277;28;20036;-61
2023/10/19 07:57:53;;;;;;;2.00;1.20;;;15.10;72.80;;;;;;10514848;28;20064;-60
2023/10/19 08:02:53;;;;;;;2.13;1.20;;;15.10;72.70;;;;;;10515027;28;20031;-61
2023/10/19 08:07:57;;;;;;;2.08;1.00;;;15.10;72.80;;;;;;10532392;28;20040;-61
2023/10/19 08:12:59;;;;;;;1.65;1.10;;;15.10;72.90;;;;;;10531734;28;20452;-61
2023/10/19 08:18:00;;;;;;;1.85;1.20;;;15.10;73.00;;;;;;10513937;28;20024;-60
2023/10/19 08:23:01;;;;;;;1.63;0.80;;;15.10;72.90;;;;;;10513994;28;20020;-61
2023/10/19 08:28:02;;;;;;;2.03;1.27;;;15.10;72.90;;;;;;10530666;28;20027;-61
2023/10/19 08:33:04;;;;;;;2.35;1.25;;;15.10;72.80;;;;;;10542529;28;20032;-61
2023/10/19 08:38:11;;;;;;;2.55;0.90;;;15.10;72.70;;;;;;10495995;28;20037;-61
2023/10/19 08:43:17;;;;;;;2.08;1.13;;;15.10;72.60;;;;;;10490319;28;20025;-60
2023/10/19 08:48:19;;;;;;;1.45;1.00;;;15.10;72.90;;;;;;10488610;28;20524;-60
2023/10/19 08:53:22;;;;;;;2.75;1.27;;;15.10;73.00;;;;;;10489829;28;20502;-60
2023/10/19 08:58:23;;;;;;;1.48;0.95;;;15.10;73.00;;;;;;10514285;28;20016;-61
2023/10/19 09:03:25;;;;;;;1.77;0.70;;;15.10;73.00;;;;;;10513437;28;20111;-61
2023/10/19 09:08:25;;;;;;;2.03;1.35;;;15.10;73.10;;;;;;10530936;28;20024;-61
2023/10/19 09:13:26;;;;;;;2.22;1.15;;;15.10;73.10;;;;;;10513132;28;20479;-61
2023/10/19 09:18:30;;;;;;;1.88;1.27;;;15.10;73.10;;;;;;10531235;28;20429;-61
2023/10/19 09:23:31;;;;;;;1.17;0.70;;;15.20;73.20;;;;;;10533558;28;20093;-61
2023/10/19 09:28:36;;;;;;;2.30;1.25;;;15.20;73.20;;;;;;10541576;28;20055;-61
2023/10/19 09:33:40;;;;;;;1.30;0.80;;;15.20;73.20;;;;;;10524166;28;20040;-61
2023/10/19 09:38:48;;;;;;;1.50;0.95;;;15.20;73.40;;;;;;10520394;28;20032;-61
2023/10/19 09:43:50;;;;;;;1.73;1.05;;;15.20;73.40;;;;;;10520534;28;20062;-61
2023/10/19 09:48:51;;;;;;;1.70;1.10;;;15.30;73.20;;;;;;10519306;28;20093;-60
2023/10/19 09:54:17;;;;;;;2.30;1.30;;;15.30;73.20;;;;;;10537923;28;20055;-60
2023/10/19 09:59:37;;;;;;;1.20;1.00;;;15.30;73.30;;;;;;10521459;28;20058;-61
2023/10/19 10:04:39;;;;;;;1.63;0.90;;;15.30;73.20;;;;;;10519903;28;20032;-61
2023/10/19 10:09:44;;;;;;;1.65;0.93;;;15.40;73.20;;;;;;10537582;28;20774;-61
2023/10/19 10:15:02;;;;;;;1.58;0.98;;;15.40;73.20;;;;;;10537404;28;20118;-61
2023/10/19 10:20:13;;;;;;;1.83;1.05;;;15.40;73.20;;;;;;10536624;28;20486;-60
2023/10/19 10:25:34;;;;;;;2.53;0.98;;;15.50;73.10;;;;;;10536429;28;20032;-61
2023/10/19 10:30:35;;;;;;;1.77;0.80;;;15.50;73.10;;;;;;10546204;28;20463;-61
2023/10/19 10:35:38;;;;;;;1.30;0.98;;;15.50;73.10;;;;;;10517551;28;20032;-60
2023/10/19 10:40:50;;;;;;;1.55;0.80;;;15.50;73.20;;;;;;10517355;28;20494;-60
2023/10/19 10:45:52;;;;;;;1.55;0.82;;;15.50;73.20;;;;;;10517928;28;20388;-61
2023/10/19 10:50:53;;;;;;;1.50;0.82;;;15.50;73.20;;;;;;10535909;28;20464;-61
2023/10/19 10:55:54;;;;;;;1.02;0.90;;;15.50;73.20;;;;;;10535230;28;20048;-61
2023/10/19 11:00:55;;;;;;;2.05;0.98;;;15.40;73.20;;;;;;10534965;28;20024;-60
2023/10/19 11:06:03;;;;;;;1.60;1.20;;;15.40;73.30;;;;;;10534045;28;20410;-61
2023/10/19 11:11:12;;;;;;;2.00;0.90;;;15.50;73.30;;;;;;10534414;28;20038;-61
2023/10/19 11:16:23;;;;;;;1.98;1.10;;;15.50;73.30;;;;;;10516834;28;20032;-61
2023/10/19 11:21:23;;;;;;;3.08;1.10;;;15.50;73.30;;;;;;10534295;28;20040;-60
2023/10/19 11:26:25;;;;;;;1.38;0.70;;;15.50;73.90;;;;;;10531875;28;20028;-61
2023/10/19 11:31:26;;;;;;;4.15;1.23;;;15.60;73.20;;;;;;10526129;28;20032;-61
2023/10/19 11:36:27;;;;;;;1.38;0.80;;;15.50;73.10;;;;;;10533713;28;20043;-61
2023/10/19 11:41:28;;;;;;;1.13;0.60;;;15.50;73.20;;;;;;10533642;28;20024;-61
2023/10/19 11:46:29;;;;;;;2.17;1.08;;;15.60;73.30;;;;;;10533604;28;20030;-62
2023/10/19 11:51:31;;;;;;;1.48;0.80;;;15.60;73.30;;;;;;10533033;28;20020;-61
2023/10/19 11:56:32;;;;;;;1.70;1.27;;;15.60;73.30;;;;;;10533238;28;20117;-61
2023/10/19 12:01:33;;;;;;;2.05;1.40;;;15.60;73.20;;;;;;10532913;28;20024;-60
2023/10/19 12:06:33;;;;;;;1.23;0.90;;;15.60;73.20;;;;;;10532956;28;20088;-61
2023/10/19 12:11:34;;;;;;;1.45;0.82;;;15.60;73.20;;;;;;10514412;28;20599;-61
2023/10/19 12:16:36;;;;;;;1.25;0.63;;;15.60;73.30;;;;;;10514568;28;20375;-61
2023/10/19 12:21:41;;;;;;;2.40;1.10;;;15.60;73.30;;;;;;10532182;28;20038;-61
2023/10/19 12:26:42;;;;;;;1.15;0.70;;;15.60;73.30;;;;;;10514978;28;20552;-61
2023/10/19 12:31:43;;;;;;;2.00;1.15;;;15.60;73.40;;;;;;10542134;28;20103;-61
2023/10/19 12:36:46;;;;;;;2.13;0.80;;;15.60;73.40;;;;;;10532079;28;20027;-61
2023/10/19 12:41:47;;;;;;;1.52;1.02;;;15.60;73.40;;;;;;10514084;28;20491;-61
2023/10/19 12:46:47;;;;;;;1.80;1.15;;;15.50;73.40;;;;;;10513617;28;20021;-60
2023/10/19 12:51:48;;;;;;;1.73;1.05;;;15.50;73.40;;;;;;10531989;28;20039;-61
2023/10/19 12:56:49;;;;;;;1.55;0.75;;;15.50;73.50;;;;;;10530351;28;20036;-61
2023/10/19 13:01:54;;;;;;;2.90;1.20;;;15.60;74.10;;;;;;10538875;28;20024;-61
2023/10/19 13:06:57;;;;;;;2.47;1.63;;;15.50;73.50;;;;;;10497986;28;20048;-61
2023/10/19 13:12:01;;;;;;;1.15;0.75;;;15.50;73.60;;;;;;10497490;28;20456;-62
2023/10/19 13:17:03;;;;;;;2.53;0.98;;;15.50;73.50;;;;;;10511031;28;20055;-61
2023/10/19 13:22:05;;;;;;;2.08;1.63;;;15.50;73.60;;;;;;10496000;28;20024;-60
2023/10/19 13:27:06;;;;;;;0.98;0.63;;;15.50;73.60;;;;;;10497397;28;20044;-61
2023/10/19 13:32:07;;;;;;;1.77;1.02;;;15.50;73.60;;;;;;10540125;28;20032;-61
2023/10/19 13:37:08;;;;;;;1.42;1.02;;;15.50;73.60;;;;;;10520477;28;20024;-61
2023/10/19 13:42:08;;;;;;;2.13;0.80;;;15.50;73.60;;;;;;10538435;28;20378;-61
2023/10/19 13:47:11;;;;;;;1.73;1.00;;;15.50;73.60;;;;;;10538490;28;20024;-61
2023/10/19 13:52:14;;;;;;;2.92;1.10;;;15.50;73.60;;;;;;10537756;28;20650;-61
2023/10/19 13:57:16;;;;;;;1.40;0.70;;;15.50;73.60;;;;;;10537477;28;20055;-61
2023/10/19 14:02:17;;;;;;;1.13;0.65;;;15.50;73.60;;;;;;10537692;28;20069;-61
2023/10/19 14:07:17;;;;;;;1.75;0.93;;;15.50;73.60;;;;;;10537035;28;20034;-61
2023/10/19 14:12:18;;;;;;;2.83;0.90;;;15.50;73.60;;;;;;10517248;28;20111;-61
2023/10/19 14:17:19;;;;;;;2.72;0.85;;;15.50;73.60;;;;;;10535520;28;20020;-61
2023/10/19 14:22:21;;;;;;;2.17;0.77;;;15.50;73.60;;;;;;10535711;28;20031;-61
2023/10/19 14:27:22;;;;;;;1.95;0.70;;;15.50;73.60;;;;;;10537010;28;20031;-61
2023/10/19 14:32:22;;;;;;;1.67;0.88;;;15.50;73.70;;;;;;10547097;28;20039;-60
2023/10/19 14:37:23;;;;;;;2.75;1.25;;;15.50;73.70;;;;;;10534880;28;20028;-60
2023/10/19 14:42:24;;;;;;;1.52;0.65;;;15.50;73.70;;;;;;10551634;28;20032;-61
2023/10/19 14:47:26;;;;;;;2.08;0.85;;;15.50;73.70;;;;;;10517233;28;20143;-62
2023/10/19 14:52:27;;;;;;;1.65;0.93;;;15.50;73.70;;;;;;10517388;28;20455;-60
2023/10/19 14:57:27;;;;;;;1.08;0.60;;;15.50;73.70;;;;;;10535561;28;20039;-60
2023/10/19 15:02:28;;;;;;;1.83;0.90;;;15.50;73.70;;;;;;10535166;28;20100;-61
2023/10/19 15:07:29;;;;;;;1.90;1.00;;;15.50;73.70;;;;;;10534982;28;20475;-61
2023/10/19 15:12:29;;;;;;;2.00;1.05;;;15.50;73.70;;;;;;10534673;28;20433;-61
2023/10/19 15:17:30;;;;;;;1.83;1.00;;;15.50;73.70;;;;;;10534758;28;20093;-61
2023/10/19 15:22:32;;;;;;;1.00;0.80;;;15.50;73.70;;;;;;10533803;28;20046;-61
2023/10/19 15:27:36;;;;;;;1.65;0.60;;;15.50;73.70;;;;;;10534601;28;20081;-61
2023/10/19 15:32:41;;;;;;;1.25;0.75;;;15.50;73.70;;;;;;10526732;28;20081;-61
2023/10/19 15:37:47;;;;;;;1.95;0.77;;;15.50;73.70;;;;;;10515764;28;20482;-62
2023/10/19 15:42:48;;;;;;;1.55;0.73;;;15.50;73.70;;;;;;10515120;28;20020;-62
2023/10/19 15:47:53;;;;;;;1.58;0.93;;;15.50;73.70;;;;;;10533547;28;20478;-61
2023/10/19 15:52:55;;;;;;;1.83;1.05;;;15.50;73.80;;;;;;10532801;28;20410;-61
2023/10/19 15:57:56;;;;;;;2.22;0.70;;;15.50;73.70;;;;;;10514743;28;20036;-60
2023/10/19 16:02:56;;;;;;;1.92;1.08;;;15.50;73.70;;;;;;10532626;28;20032;-60
2023/10/19 16:07:57;;;;;;;1.98;0.90;;;15.50;73.70;;;;;;10532858;28;20039;-61
2023/10/19 16:12:59;;;;;;;1.05;0.60;;;15.50;73.70;;;;;;10531662;28;20133;-60
2023/10/19 16:18:00;;;;;;;2.00;1.00;;;15.50;73.80;;;;;;10491310;28;20042;-61
2023/10/19 16:23:01;;;;;;;2.03;0.80;;;15.50;73.80;;;;;;10489565;28;20476;-61
2023/10/19 16:28:02;;;;;;;1.95;1.15;;;15.50;73.80;;;;;;10491070;28;20028;-61
2023/10/19 16:33:03;;;;;;;2.08;0.95;;;15.50;73.80;;;;;;10540702;28;20054;-60
2023/10/19 16:38:04;;;;;;;1.50;0.85;;;15.50;73.80;;;;;;10513611;28;20487;-61
2023/10/19 16:43:10;;;;;;;2.08;1.10;;;15.50;73.80;;;;;;10532132;28;20024;-61
2023/10/19 16:48:11;;;;;;;2.92;1.10;;;15.50;73.80;;;;;;10530085;28;20028;-61
2023/10/19 16:53:12;;;;;;;2.00;1.05;;;15.50;73.80;;;;;;10531671;28;20027;-60
2023/10/19 16:58:14;;;;;;;1.00;0.85;;;15.50;73.90;;;;;;10531316;28;20059;-61
2023/10/19 17:03:15;;;;;;;1.15;0.77;;;15.50;73.90;;;;;;10531571;28;20024;-61
2023/10/19 17:08:16;;;;;;;2.42;0.90;;;15.50;73.90;;;;;;10531662;28;20387;-61
2023/10/19 17:13:17;;;;;;;4.18;1.67;;;15.50;73.90;;;;;;10511023;28;20184;-61
2023/10/19 17:18:18;;;;;;;2.05;1.02;;;15.50;73.90;;;;;;10529426;28;20036;-61
2023/10/19 17:23:23;;;;;;;2.05;1.10;;;15.50;73.90;;;;;;10529302;28;20123;-60
2023/10/19 17:28:23;;;;;;;1.98;1.00;;;15.50;73.90;;;;;;10513113;28;20459;-60
2023/10/19 17:33:24;;;;;;;2.22;1.30;;;15.50;73.90;;;;;;10514535;28;20043;-61
2023/10/19 17:38:26;;;;;;;2.10;1.50;;;15.50;73.90;;;;;;10528439;28;20439;-61
2023/10/19 17:43:27;;;;;;;1.90;1.10;;;15.50;73.90;;;;;;10511963;28;20028;-61
2023/10/19 17:48:28;;;;;;;1.48;0.98;;;15.50;74.00;;;;;;10517753;28;20031;-61
2023/10/19 17:53:29;;;;;;;2.58;1.13;;;15.50;74.00;;;;;;10536021;28;20066;-61
2023/10/19 17:58:29;;;;;;;1.73;1.00;;;15.50;74.00;;;;;;10536104;28;20024;-60
2023/10/19 18:03:35;;;;;;;1.42;0.98;;;15.50;73.90;;;;;;10535636;28;20072;-60
2023/10/19 18:08:36;;;;;;;2.47;1.58;;;15.50;73.90;;;;;;10535553;28;20035;-60
2023/10/19 18:13:37;;;;;;;2.03;1.10;;;15.50;74.00;;;;;;10517007;28;20027;-60
2023/10/19 18:18:39;;;;;;;1.95;1.30;;;15.50;74.00;;;;;;10516645;28;20024;-61
2023/10/19 18:23:46;;;;;;;1.83;1.00;;;15.50;74.00;;;;;;10535035;28;20032;-61
2023/10/19 18:28:47;;;;;;;3.92;1.38;;;15.50;74.00;;;;;;10539582;28;20059;-61
2023/10/19 18:33:48;;;;;;;2.65;1.67;;;15.50;74.00;;;;;;10519897;28;20135;-60
2023/10/19 18:38:49;;;;;;;1.88;1.17;;;15.50;74.10;;;;;;10533746;28;20524;-61
2023/10/19 18:43:51;;;;;;;1.80;1.08;;;15.50;74.10;;;;;;10534240;28;20487;-60
2023/10/19 18:48:51;;;;;;;1.88;0.93;;;15.50;74.10;;;;;;10533666;28;20032;-60
2023/10/19 18:53:55;;;;;;;2.55;1.42;;;15.50;74.10;;;;;;10533311;28;20503;-61
2023/10/19 18:58:56;;;;;;;2.75;1.40;;;15.50;74.10;;;;;;10514790;28;20024;-60
2023/10/19 19:03:56;;;;;;;3.83;1.38;;;15.50;74.10;;;;;;10533701;28;20038;-60
2023/10/19 19:08:57;;;;;;;2.17;1.38;;;15.50;74.10;;;;;;10532986;28;20040;-61
2023/10/19 19:13:58;;;;;;;1.98;1.15;;;15.50;74.10;;;;;;10531496;28;20028;-60
2023/10/19 19:18:58;;;;;;;4.18;1.58;;;15.50;74.10;;;;;;10532726;28;20024;-62
2023/10/19 19:24:00;;;;;;;2.45;1.42;;;15.50;74.10;;;;;;10514340;28;20297;-62
2023/10/19 19:29:00;;;;;;;1.98;1.25;;;15.50;74.10;;;;;;10539375;28;20064;-62
2023/10/19 19:34:02;;;;;;;2.17;1.67;;;15.50;74.10;;;;;;10535023;28;20073;-62
2023/10/19 19:39:03;;;;;;;4.03;1.27;;;15.50;74.20;;;;;;10513993;28;20124;-62
2023/10/19 19:44:04;;;;;;;3.03;1.73;;;15.50;74.20;;;;;;10531521;28;20111;-62
2023/10/19 19:49:05;;;;;;;3.45;1.90;;;15.50;74.20;;;;;;10531216;28;20032;-62
2023/10/19 19:54:05;;;;;;;2.83;1.00;;;15.50;74.20;;;;;;10531194;28;20605;-62
2023/10/19 19:59:08;;;;;;;2.85;1.30;;;15.50;74.20;;;;;;10531595;28;20190;-62
2023/10/19 20:04:09;;;;;;;3.70;1.48;;;15.50;74.20;;;;;;10531156;28;20024;-62
2023/10/19 20:09:10;;;;;;;2.45;1.33;;;15.50;74.30;;;;;;10530916;28;20031;-62
2023/10/19 20:14:11;;;;;;;2.63;1.40;;;15.50;74.30;;;;;;10530617;28;20034;-61
2023/10/19 20:19:13;;;;;;;3.03;1.40;;;15.50;74.20;;;;;;10530291;28;20047;-62
2023/10/19 20:24:14;;;;;;;2.17;1.27;;;15.50;74.30;;;;;;10530526;28;20053;-62
2023/10/19 20:29:14;;;;;;;2.08;0.95;;;15.50;74.30;;;;;;10554596;28;20028;-62
2023/10/19 20:34:15;;;;;;;2.38;1.40;;;15.50;74.30;;;;;;10530886;28;20062;-62
2023/10/19 20:39:18;;;;;;;2.10;1.35;;;15.50;74.30;;;;;;10530259;28;20029;-62
2023/10/19 20:44:24;;;;;;;3.17;1.40;;;15.50;74.30;;;;;;10529890;28;20070;-62
2023/10/19 20:49:25;;;;;;;1.90;1.30;;;15.50;74.30;;;;;;10512662;28;20032;-62
2023/10/19 20:54:25;;;;;;;2.38;1.50;;;15.50;74.30;;;;;;10529539;28;20992;-62
2023/10/19 20:59:26;;;;;;;2.67;1.40;;;15.50;74.40;;;;;;10529566;28;20107;-62
2023/10/19 21:04:28;;;;;;;2.65;1.52;;;15.50;74.40;;;;;;10511450;28;20070;-62
2023/10/19 21:09:30;;;;;;;2.30;1.42;;;15.50;74.40;;;;;;10530103;28;20055;-62
2023/10/19 21:14:31;;;;;;;2.42;1.33;;;15.50;74.40;;;;;;10529895;28;20036;-61
2023/10/19 21:19:32;;;;;;;2.67;1.20;;;15.50;74.50;;;;;;10531518;28;20086;-61
2023/10/19 21:24:34;;;;;;;2.05;1.48;;;15.50;74.40;;;;;;10519590;28;20027;-62
2023/10/19 21:29:34;;;;;;;2.67;1.95;;;15.50;74.40;;;;;;10546816;28;20456;-62
2023/10/19 21:34:36;;;;;;;2.22;1.38;;;15.50;74.40;;;;;;10518937;28;20036;-62
2023/10/19 21:39:36;;;;;;;1.95;1.50;;;15.50;74.50;;;;;;10536668;28;20545;-62
2023/10/19 21:44:37;;;;;;;2.42;1.40;;;15.50;74.40;;;;;;10536389;28;20039;-62
2023/10/19 21:49:38;;;;;;;2.28;1.30;;;15.50;74.50;;;;;;10536164;28;20039;-62
2023/10/19 21:54:39;;;;;;;4.15;1.50;;;15.50;74.50;;;;;;10535778;28;20044;-62
2023/10/19 21:59:39;;;;;;;2.20;1.30;;;15.50;74.50;;;;;;10535620;28;20792;-62
2023/10/19 22:04:41;;;;;;;2.97;1.30;;;15.50;74.40;;;;;;10536339;28;20039;-62
2023/10/19 22:09:42;;;;;;;3.33;1.27;;;15.50;74.50;;;;;;10533657;28;20126;-62
2023/10/19 22:14:43;;;;;;;2.40;1.65;;;15.50;74.50;;;;;;10535104;28;20036;-61
2023/10/19 22:19:43;;;;;;;1.92;1.17;;;15.50;74.50;;;;;;10534719;28;20034;-61
2023/10/19 22:24:44;;;;;;;1.90;1.10;;;15.50;74.60;;;;;;10516911;28;20085;-62
2023/10/19 22:29:45;;;;;;;2.47;1.55;;;15.50;74.60;;;;;;10542991;28;20558;-62
2023/10/19 22:34:46;;;;;;;4.10;1.80;;;15.50;74.60;;;;;;10534366;28;20043;-62
2023/10/19 22:39:47;;;;;;;2.35;1.35;;;15.50;74.60;;;;;;10534581;28;20027;-62
2023/10/19 22:44:48;;;;;;;2.95;1.70;;;15.50;74.60;;;;;;10534057;28;20036;-62
2023/10/19 22:49:48;;;;;;;2.40;1.20;;;15.50;74.60;;;;;;10533647;28;20499;-62
2023/10/19 22:54:49;;;;;;;2.90;1.92;;;15.50;74.70;;;;;;10515546;28;20529;-62
2023/10/19 22:59:51;;;;;;;1.90;1.30;;;15.50;74.60;;;;;;10533038;28;20500;-62
2023/10/19 23:04:53;;;;;;;2.88;1.25;;;15.50;74.60;;;;;;10515898;28;20024;-62
2023/10/19 23:09:55;;;;;;;3.00;2.00;;;15.50;74.60;;;;;;10533373;28;20028;-62
2023/10/19 23:14:57;;;;;;;2.63;1.77;;;15.50;74.70;;;;;;10533130;28;20024;-62
2023/10/19 23:19:58;;;;;;;1.95;1.58;;;15.50;74.70;;;;;;10514398;28;20021;-62
2023/10/19 23:25:00;;;;;;;2.47;1.65;;;15.50;74.60;;;;;;10532567;28;20031;-62
2023/10/19 23:30:01;;;;;;;3.10;2.03;;;15.50;74.70;;;;;;10523053;28;20035;-62
2023/10/19 23:35:01;;;;;;;2.15;1.63;;;15.50;74.70;;;;;;10532539;28;20057;-61
2023/10/19 23:40:03;;;;;;;3.25;2.10;;;15.50;74.70;;;;;;10513902;28;20552;-62
2023/10/19 23:45:06;;;;;;;3.33;2.17;;;15.50;74.70;;;;;;10547800;28;20394;-62
2023/10/19 23:50:08;;;;;;;2.63;1.80;;;15.50;74.70;;;;;;10531162;28;20395;-62
2023/10/19 23:55:10;;;;;;;3.63;1.88;;;15.50;74.70;;;;;;10531486;28;20054;-62
